Time;durP1;ratioP1;P1;durP2;ratioP2;P2;SDS_P1;SDS_P2;PMS_P1;PMS_P2;Temp;Humidity;BMP_temperature;BMP_pressure;BME280_temperature;BME280_humidity;BME280_pressure;Samples;Min_cycle;Max_cycle;Signal;HPM_P1;HPM_P2
2021/08/15 00:02:04;;;;;;;;;;;25.50;99.90;;;;;;1961197;73;20170;-93
2021/08/15 00:04:34;;;;;;;;;;;25.50;99.90;;;;;;1959049;73;20180;-93
2021/08/15 00:07:04;;;;;;;;;;;25.50;99.90;;;;;;1958200;73;20211;-92
2021/08/15 00:09:34;;;;;;;;;;;25.50;99.90;;;;;;1968973;72;20242;-92
2021/08/15 00:12:04;;;;;;;;;;;25.50;99.90;;;;;;1975041;72;20212;-95
2021/08/15 00:14:35;;;;;;;;;;;25.50;99.90;;;;;;1978334;72;20154;-92
2021/08/15 00:17:04;;;;;;;;;;;25.50;99.90;;;;;;1972496;72;20541;-93
2021/08/15 00:19:34;;;;;;;;;;;25.50;99.90;;;;;;1979233;72;20188;-93
2021/08/15 00:22:04;;;;;;;;;;;25.50;99.90;;;;;;1978520;72;20192;-91
2021/08/15 00:24:35;;;;;;;;;;;25.60;99.90;;;;;;1974627;72;20207;-92
2021/08/15 00:27:05;;;;;;;;;;;25.50;99.90;;;;;;1973194;72;20416;-93
2021/08/15 00:29:35;;;;;;;;;;;25.60;99.90;;;;;;1977577;72;20112;-93
2021/08/15 00:32:06;;;;;;;;;;;25.60;99.90;;;;;;1958168;72;20556;-93
2021/08/15 00:34:36;;;;;;;;;;;25.70;99.90;;;;;;1964503;72;20164;-91
2021/08/15 00:37:06;;;;;;;;;;;25.60;99.90;;;;;;1980187;72;20372;-94
2021/08/15 00:39:36;;;;;;;;;;;25.70;99.90;;;;;;1970111;72;20217;-93
2021/08/15 00:42:10;;;;;;;;;;;25.70;99.90;;;;;;1978058;72;20176;-93
2021/08/15 00:44:39;;;;;;;;;;;25.70;99.90;;;;;;1968709;72;20206;-93
2021/08/15 00:47:09;;;;;;;;;;;25.70;99.90;;;;;;1976922;72;20173;-93
2021/08/15 00:49:39;;;;;;;;;;;25.70;99.90;;;;;;1950080;72;20182;-91
2021/08/15 00:52:09;;;;;;;;;;;25.80;99.90;;;;;;1947067;72;20224;-92
2021/08/15 00:54:38;;;;;;;;;;;25.80;99.90;;;;;;1964069;72;20136;-92
2021/08/15 00:57:09;;;;;;;;;;;25.80;99.90;;;;;;1972115;72;20185;-92
2021/08/15 00:59:39;;;;;;;;;;;25.80;99.90;;;;;;1946754;72;20181;-93
2021/08/15 01:02:09;;;;;;;;;;;25.80;99.90;;;;;;1963361;72;20204;-90
2021/08/15 01:04:40;;;;;;;;;;;25.80;99.90;;;;;;1974565;72;20240;-91
2021/08/15 01:07:10;;;;;;;;;;;25.80;99.90;;;;;;1960734;72;20274;-93
2021/08/15 01:09:41;;;;;;;;;;;25.80;99.90;;;;;;1973955;71;20268;-91
2021/08/15 01:15:38;;;;;;;;;;;25.90;99.90;;;;;;1905013;72;20214;-93
2021/08/15 01:18:21;;;;;;;;;;;25.90;99.90;;;;;;1966704;72;20165;-93
2021/08/15 01:21:00;;;;;;;;;;;26.00;99.90;;;;;;1975513;72;20193;-94
2021/08/15 01:23:49;;;;;;;;;;;26.00;99.90;;;;;;1975653;71;20189;-90
2021/08/15 01:26:21;;;;;;;;;;;26.00;99.90;;;;;;1981140;71;20262;-94
2021/08/15 01:28:53;;;;;;;;;;;26.10;99.90;;;;;;1976457;72;20218;-95
2021/08/15 01:31:24;;;;;;;;;;;26.10;99.90;;;;;;1973523;72;20153;-93
2021/08/15 01:33:54;;;;;;;;;;;26.10;99.90;;;;;;1975504;72;20199;-93
2021/08/15 01:36:32;;;;;;;;;;;26.20;99.90;;;;;;1973601;72;20201;-94
2021/08/15 01:39:01;;;;;;;;;;;26.20;99.90;;;;;;1976273;71;20440;-93
2021/08/15 01:41:32;;;;;;;;;;;26.30;99.90;;;;;;1971471;72;20155;-94
2021/08/15 01:44:13;;;;;;;;;;;26.30;99.90;;;;;;1968840;72;20418;-93
2021/08/15 01:46:59;;;;;;;;;;;26.30;99.90;;;;;;1973345;71;20180;-91
2021/08/15 01:49:31;;;;;;;;;;;26.30;99.90;;;;;;1978623;72;20470;-95
2021/08/15 01:52:03;;;;;;;;;;;26.30;99.90;;;;;;1972734;72;20150;-92
2021/08/15 01:54:33;;;;;;;;;;;26.40;99.90;;;;;;1971010;72;20199;-89
2021/08/15 01:57:09;;;;;;;;;;;26.40;99.90;;;;;;1974054;70;20127;-94
2021/08/15 01:59:38;;;;;;;;;;;26.50;99.90;;;;;;1981458;71;20179;-92
2021/08/15 02:02:10;;;;;;;;;;;26.50;99.90;;;;;;1887406;73;20234;-92
2021/08/15 02:04:55;;;;;;;;;;;26.50;99.90;;;;;;1930306;71;20163;-93
2021/08/15 02:10:43;;;;;;;;;;;26.60;99.90;;;;;;1948204;70;20197;-92
2021/08/15 02:13:15;;;;;;;;;;;26.60;99.90;;;;;;1943624;73;20111;-92
2021/08/15 02:15:49;;;;;;;;;;;26.60;99.90;;;;;;1934444;73;20182;-90
2021/08/15 02:18:20;;;;;;;;;;;26.70;99.90;;;;;;1941022;73;20285;-92
2021/08/15 02:21:08;;;;;;;;;;;26.80;99.90;;;;;;1874573;73;20204;-91
2021/08/15 02:24:05;;;;;;;;;;;26.80;99.90;;;;;;1934369;73;20131;-93
2021/08/15 02:26:48;;;;;;;;;;;26.80;99.90;;;;;;1932615;73;20223;-92
2021/08/15 02:29:21;;;;;;;;;;;26.90;99.90;;;;;;1891248;74;20202;-90
2021/08/15 02:32:02;;;;;;;;;;;27.00;99.90;;;;;;1860955;74;20187;-90
2021/08/15 02:34:36;;;;;;;;;;;27.00;99.90;;;;;;1888636;74;20293;-92
2021/08/15 02:37:20;;;;;;;;;;;27.10;99.90;;;;;;1922607;73;20263;-93
2021/08/15 02:39:59;;;;;;;;;;;27.20;99.90;;;;;;1907842;73;20203;-94
2021/08/15 02:42:43;;;;;;;;;;;27.20;99.90;;;;;;1930806;73;20138;-93
2021/08/15 02:45:25;;;;;;;;;;;27.30;99.90;;;;;;1923784;73;20250;-91
2021/08/15 02:47:51;;;;;;;;;;;27.30;99.90;;;;;;1880462;75;20145;-80
2021/08/15 02:50:24;;;;;;;;;;;27.30;99.90;;;;;;1913685;73;20161;-78
2021/08/15 02:53:30;;;;;;;;;;;27.30;99.90;;;;;;1918459;73;20203;-77
2021/08/15 02:56:08;;;;;;;;;;;27.40;99.90;;;;;;1902474;74;20235;-78
2021/08/15 02:58:39;;;;;;;;;;;27.50;99.90;;;;;;1890142;74;20132;-78
2021/08/15 03:01:38;;;;;;;;;;;27.50;99.90;;;;;;1917879;73;20200;-79
2021/08/15 03:04:03;;;;;;;;;;;27.50;99.90;;;;;;1906544;74;20253;-78
2021/08/15 03:06:48;;;;;;;;;;;27.50;99.90;;;;;;1916923;74;20491;-76
2021/08/15 03:09:36;;;;;;;;;;;27.50;99.90;;;;;;1916436;74;20270;-80
2021/08/15 03:12:07;;;;;;;;;;;27.50;99.90;;;;;;1897141;74;20196;-80
2021/08/15 03:14:40;;;;;;;;;;;27.50;99.90;;;;;;1898686;75;20331;-79
2021/08/15 03:20:42;;;;;;;;;;;27.50;99.90;;;;;;1780496;77;20231;-78
2021/08/15 03:23:18;;;;;;;;;;;27.50;99.90;;;;;;1816549;77;20254;-77
2021/08/15 03:25:51;;;;;;;;;;;27.50;99.90;;;;;;1791252;77;20263;-77
2021/08/15 03:28:26;;;;;;;;;;;27.60;99.90;;;;;;1836064;77;20246;-78
2021/08/15 03:31:14;;;;;;;;;;;27.60;99.90;;;;;;1836411;77;20256;-79
2021/08/15 03:33:52;;;;;;;;;;;27.60;99.90;;;;;;1836021;77;20513;-77
2021/08/15 03:36:34;;;;;;;;;;;27.60;99.90;;;;;;1830516;77;20264;-78
2021/08/15 03:39:23;;;;;;;;;;;27.60;99.90;;;;;;1788730;79;20191;-79
2021/08/15 03:42:00;;;;;;;;;;;27.60;99.90;;;;;;1791554;79;20223;-79
2021/08/15 03:44:34;;;;;;;;;;;27.70;99.90;;;;;;1791663;79;20475;-77
2021/08/15 03:47:04;;;;;;;;;;;27.70;99.90;;;;;;1788414;79;20514;-78
2021/08/15 03:49:36;;;;;;;;;;;27.70;99.90;;;;;;1763386;81;20286;-78
2021/08/15 03:52:05;;;;;;;;;;;27.80;99.90;;;;;;1758216;81;20208;-79
2021/08/15 03:54:34;;;;;;;;;;;27.80;99.90;;;;;;1761138;81;20325;-77
2021/08/15 03:57:04;;;;;;;;;;;27.90;99.90;;;;;;1800866;77;20174;-77
2021/08/15 03:59:41;;;;;;;;;;;27.90;99.90;;;;;;1900959;74;20250;-77
2021/08/15 04:02:11;;;;;;;;;;;28.00;99.90;;;;;;1906705;74;20210;-77
2021/08/15 04:04:43;;;;;;;;;;;28.00;99.90;;;;;;1917823;74;20191;-76
2021/08/15 04:07:13;;;;;;;;;;;28.00;99.90;;;;;;1910737;74;20539;-80
2021/08/15 04:09:44;;;;;;;;;;;28.10;99.90;;;;;;1912029;73;20289;-78
2021/08/15 04:12:22;;;;;;;;;;;28.10;99.90;;;;;;1914877;74;20492;-78
2021/08/15 04:14:51;;;;;;;;;;;28.20;99.90;;;;;;1913758;74;20498;-77
2021/08/15 04:17:21;;;;;;;;;;;28.20;99.90;;;;;;1930821;72;20211;-77
2021/08/15 04:19:55;;;;;;;;;;;28.30;99.90;;;;;;1933144;72;20201;-76
2021/08/15 04:22:43;;;;;;;;;;;28.30;99.90;;;;;;1920118;73;20171;-78
2021/08/15 04:25:13;;;;;;;;;;;28.30;99.90;;;;;;1935530;72;20269;-76
2021/08/15 04:27:43;;;;;;;;;;;28.40;99.90;;;;;;1935550;74;20210;-76
2021/08/15 04:30:13;;;;;;;;;;;28.40;99.40;;;;;;1931243;74;20230;-77
2021/08/15 04:32:43;;;;;;;;;;;28.40;99.60;;;;;;1900818;74;20188;-78
2021/08/15 04:35:13;;;;;;;;;;;28.40;99.90;;;;;;1937287;74;20151;-79
2021/08/15 04:37:46;;;;;;;;;;;28.40;99.90;;;;;;1931540;74;20162;-80
2021/08/15 04:41:08;;;;;;;;;;;28.40;99.40;;;;;;1930786;74;20343;-77
2021/08/15 04:44:59;;;;;;;;;;;28.40;99.30;;;;;;1841847;74;20189;-77
2021/08/15 04:46:06;;;;;;;;;;;28.50;99.10;;;;;;1885943;73;20150;-76
2021/08/15 04:51:15;;;;;;;;;;;28.60;99.50;;;;;;1765321;79;20246;-78
2021/08/15 04:53:44;;;;;;;;;;;28.50;99.70;;;;;;1825736;78;20171;-80
2021/08/15 04:56:16;;;;;;;;;;;28.60;99.00;;;;;;1879702;75;20208;-76
2021/08/15 04:58:45;;;;;;;;;;;28.60;99.10;;;;;;1856762;77;20227;-79
2021/08/15 05:01:16;;;;;;;;;;;28.60;99.10;;;;;;1849133;77;20742;-79
2021/08/15 05:03:49;;;;;;;;;;;28.60;99.00;;;;;;1849726;77;20225;-79
2021/08/15 05:06:18;;;;;;;;;;;28.50;98.80;;;;;;1852250;77;20262;-77
2021/08/15 05:08:48;;;;;;;;;;;28.50;98.80;;;;;;1843656;77;20568;-79
2021/08/15 05:11:20;;;;;;;;;;;28.50;99.10;;;;;;1846099;78;20201;-79
2021/08/15 05:13:54;;;;;;;;;;;28.50;99.30;;;;;;1824979;78;20200;-80
2021/08/15 05:16:23;;;;;;;;;;;28.40;99.30;;;;;;1833492;76;20245;-77
2021/08/15 05:18:55;;;;;;;;;;;28.50;99.30;;;;;;1842926;77;20508;-78
2021/08/15 05:21:24;;;;;;;;;;;28.40;99.10;;;;;;1842347;77;20283;-78
2021/08/15 05:23:57;;;;;;;;;;;28.40;99.20;;;;;;1827781;78;20256;-76
2021/08/15 05:26:26;;;;;;;;;;;28.40;99.40;;;;;;1840944;76;20557;-78
2021/08/15 05:29:03;;;;;;;;;;;28.50;99.30;;;;;;1764429;76;20618;-78
2021/08/15 05:34:51;;;;;;;;;;;28.40;99.30;;;;;;1926514;73;20148;-77
2021/08/15 05:37:21;;;;;;;;;;;28.40;99.10;;;;;;1922675;73;20168;-76
2021/08/15 05:40:13;;;;;;;;;;;28.40;99.20;;;;;;1865738;73;20582;-76
2021/08/15 05:43:23;;;;;;;;;;;28.40;99.50;;;;;;1938992;73;20274;-78
2021/08/15 05:49:07;;;;;;;;;;;;;;;;;;;;;
2021/08/15 05:52:43;;;;;;;;;;;28.30;99.90;;;;;;1813727;79;20187;-79
2021/08/15 05:54:25;;;;;;;;;;;28.10;99.90;;;;;;1779587;78;20229;-81
2021/08/15 05:56:55;;;;;;;;;;;28.00;99.90;;;;;;1793937;79;20329;-79
2021/08/15 05:59:25;;;;;;;;;;;28.10;99.90;;;;;;1789695;78;20210;-78
2021/08/15 06:02:28;;;;;;;;;;;28.10;99.90;;;;;;1767866;80;20270;-78
2021/08/15 06:10:55;;;;;;;;;;;28.40;99.90;;;;;;1752651;80;20247;-80
2021/08/15 06:13:25;;;;;;;;;;;28.50;99.90;;;;;;1751177;80;20269;-77
2021/08/15 06:15:55;;;;;;;;;;;28.60;99.80;;;;;;1779716;78;20216;-79
2021/08/15 06:18:24;;;;;;;;;;;28.60;99.80;;;;;;1784498;79;20331;-81
2021/08/15 06:20:54;;;;;;;;;;;28.60;99.90;;;;;;1800292;77;20251;-78
2021/08/15 06:23:25;;;;;;;;;;;28.60;99.60;;;;;;1806423;77;20253;-79
2021/08/15 06:25:57;;;;;;;;;;;28.70;99.50;;;;;;1913131;71;20182;-78
2021/08/15 06:28:34;;;;;;;;;;;28.70;99.60;;;;;;1958953;71;20146;-80
2021/08/15 06:31:05;;;;;;;;;;;28.60;99.90;;;;;;1954224;71;20192;-80
2021/08/15 06:33:37;;;;;;;;;;;28.60;99.70;;;;;;1936770;73;20208;-77
2021/08/15 06:36:29;;;;;;;;;;;28.60;99.80;;;;;;1966880;71;20194;-79
2021/08/15 06:38:46;;;;;;;;;;;28.60;99.90;;;;;;1976370;71;20143;-80
2021/08/15 06:41:16;;;;;;;;;;;28.60;99.90;;;;;;1989032;71;20184;-79
2021/08/15 06:43:46;;;;;;;;;;;28.70;99.90;;;;;;1975997;71;20176;-78
2021/08/15 06:46:23;;;;;;;;;;;28.60;99.20;;;;;;1977802;71;20205;-80
2021/08/15 06:48:53;;;;;;;;;;;28.70;99.30;;;;;;1959925;73;20211;-79
2021/08/15 06:51:22;;;;;;;;;;;28.70;99.30;;;;;;1966330;71;20741;-80
2021/08/15 06:53:52;;;;;;;;;;;28.70;99.70;;;;;;1964000;73;20183;-78
2021/08/15 06:56:22;;;;;;;;;;;28.70;98.90;;;;;;1963546;73;20178;-79
2021/08/15 06:58:57;;;;;;;;;;;28.80;99.00;;;;;;1963381;73;20155;-79
2021/08/15 07:01:43;;;;;;;;;;;28.80;99.30;;;;;;1963191;71;20119;-78
2021/08/15 07:04:13;;;;;;;;;;;28.80;99.20;;;;;;1974373;71;20553;-80
2021/08/15 07:06:45;;;;;;;;;;;28.80;98.90;;;;;;1972743;71;20657;-78
2021/08/15 07:09:17;;;;;;;;;;;28.90;98.90;;;;;;1979177;71;20135;-78
2021/08/15 07:11:48;;;;;;;;;;;28.90;99.20;;;;;;1972608;71;20216;-81
2021/08/15 07:14:17;;;;;;;;;;;28.90;99.30;;;;;;1964938;71;20164;-78
2021/08/15 07:16:50;;;;;;;;;;;29.00;99.40;;;;;;1978211;71;20205;-81
2021/08/15 07:19:24;;;;;;;;;;;29.00;99.40;;;;;;1978416;71;20167;-80
2021/08/15 07:21:52;;;;;;;;;;;29.00;99.40;;;;;;1970075;71;20159;-79
2021/08/15 07:24:23;;;;;;;;;;;29.00;99.30;;;;;;1966040;73;20195;-80
2021/08/15 07:27:17;;;;;;;;;;;29.10;97.20;;;;;;1963736;73;20218;-80
2021/08/15 07:29:31;;;;;;;;;;;29.10;97.80;;;;;;1959385;73;20169;-81
2021/08/15 07:32:05;;;;;;;;;;;29.10;97.70;;;;;;1964896;72;20166;-79
2021/08/15 07:34:40;;;;;;;;;;;29.10;97.70;;;;;;1948569;72;20198;-80
2021/08/15 07:37:09;;;;;;;;;;;29.20;98.10;;;;;;1963313;71;20287;-79
2021/08/15 07:39:48;;;;;;;;;;;29.10;97.60;;;;;;1967052;71;20489;-81
2021/08/15 07:42:20;;;;;;;;;;;29.10;97.30;;;;;;1937850;73;20414;-79
2021/08/15 07:44:49;;;;;;;;;;;29.10;97.50;;;;;;2010384;70;20195;-80
2021/08/15 07:47:25;;;;;;;;;;;29.10;97.80;;;;;;2000121;70;20498;-79
2021/08/15 07:49:51;;;;;;;;;;;29.10;97.90;;;;;;1997454;70;20212;-80
2021/08/15 07:52:21;;;;;;;;;;;29.10;96.90;;;;;;2002885;71;20199;-79
2021/08/15 07:54:51;;;;;;;;;;;29.10;97.30;;;;;;1999882;71;20236;-79
2021/08/15 07:57:20;;;;;;;;;;;29.20;97.00;;;;;;2000001;71;20275;-79
2021/08/15 07:59:50;;;;;;;;;;;29.20;96.00;;;;;;2001508;71;20258;-80
2021/08/15 08:02:20;;;;;;;;;;;29.30;95.20;;;;;;1959783;73;20269;-79
2021/08/15 08:04:54;;;;;;;;;;;29.40;95.00;;;;;;1959065;72;20260;-80
2021/08/15 08:07:26;;;;;;;;;;;29.40;94.80;;;;;;1927714;73;20207;-78
2021/08/15 08:09:58;;;;;;;;;;;29.40;94.70;;;;;;1965484;72;20127;-80
2021/08/15 08:12:32;;;;;;;;;;;29.40;94.40;;;;;;1926667;73;20211;-79
2021/08/15 08:15:01;;;;;;;;;;;29.40;94.40;;;;;;1962815;71;20221;-78
2021/08/15 08:17:31;;;;;;;;;;;29.30;94.40;;;;;;1931386;73;20227;-79
2021/08/15 08:20:12;;;;;;;;;;;29.20;94.60;;;;;;1955909;71;20166;-79
2021/08/15 08:22:42;;;;;;;;;;;29.20;94.70;;;;;;1929146;73;20181;-78
2021/08/15 08:25:12;;;;;;;;;;;29.10;95.00;;;;;;1930793;73;20172;-78
2021/08/15 08:27:42;;;;;;;;;;;29.00;95.10;;;;;;1930467;73;20228;-79
2021/08/15 08:30:15;;;;;;;;;;;29.00;95.30;;;;;;1933486;73;20449;-78
2021/08/15 08:32:45;;;;;;;;;;;29.00;95.70;;;;;;1963639;73;20187;-77
2021/08/15 08:35:16;;;;;;;;;;;28.90;96.10;;;;;;1963479;72;20233;-78
2021/08/15 08:37:47;;;;;;;;;;;28.80;96.30;;;;;;1959817;73;20371;-76
2021/08/15 08:40:17;;;;;;;;;;;28.70;96.80;;;;;;1965893;73;20504;-77
2021/08/15 08:42:48;;;;;;;;;;;28.70;97.30;;;;;;1964838;71;20175;-78
2021/08/15 08:45:18;;;;;;;;;;;28.60;97.50;;;;;;1991895;71;20641;-81
2021/08/15 08:47:49;;;;;;;;;;;28.50;97.80;;;;;;1963474;73;20206;-79
2021/08/15 08:50:19;;;;;;;;;;;28.40;98.00;;;;;;1956493;73;20267;-78
2021/08/15 08:52:49;;;;;;;;;;;28.40;98.50;;;;;;1966906;71;20513;-78
2021/08/15 08:55:21;;;;;;;;;;;28.30;98.80;;;;;;1957340;71;20193;-81
2021/08/15 08:57:51;;;;;;;;;;;28.30;98.70;;;;;;1961275;73;20222;-79
2021/08/15 09:00:22;;;;;;;;;;;28.40;97.80;;;;;;1965813;71;20273;-78
2021/08/15 09:02:53;;;;;;;;;;;28.30;98.20;;;;;;1965984;73;20187;-79
2021/08/15 09:05:27;;;;;;;;;;;28.30;99.40;;;;;;1961975;71;20224;-80
2021/08/15 09:07:58;;;;;;;;;;;28.20;99.60;;;;;;1960655;72;20198;-80
2021/08/15 09:10:29;;;;;;;;;;;28.10;99.90;;;;;;1965523;73;20205;-79
2021/08/15 09:13:00;;;;;;;;;;;28.00;99.90;;;;;;1967072;73;20131;-79
2021/08/15 09:15:31;;;;;;;;;;;28.00;99.90;;;;;;1966613;73;20189;-79
2021/08/15 09:18:10;;;;;;;;;;;27.90;99.90;;;;;;1964489;73;20174;-79
2021/08/15 09:20:37;;;;;;;;;;;27.80;99.90;;;;;;1964851;72;20532;-78
2021/08/15 09:23:09;;;;;;;;;;;27.70;99.90;;;;;;1959384;72;20203;-78
2021/08/15 09:25:39;;;;;;;;;;;27.60;99.90;;;;;;1978419;72;20163;-80
2021/08/15 09:28:09;;;;;;;;;;;27.40;99.90;;;;;;1959405;73;20158;-82
2021/08/15 09:30:38;;;;;;;;;;;27.30;99.90;;;;;;1961235;73;20558;-79
2021/08/15 09:33:09;;;;;;;;;;;27.30;99.90;;;;;;1965071;72;20524;-79
2021/08/15 09:35:45;;;;;;;;;;;27.20;99.90;;;;;;1961462;72;20190;-79
2021/08/15 09:38:20;;;;;;;;;;;27.20;99.90;;;;;;1963271;71;20431;-79
2021/08/15 09:40:46;;;;;;;;;;;27.10;99.90;;;;;;1961197;72;20174;-80
2021/08/15 09:43:17;;;;;;;;;;;27.10;99.90;;;;;;1966767;73;20469;-80
2021/08/15 09:46:10;;;;;;;;;;;27.00;99.90;;;;;;1959929;71;20197;-79
2021/08/15 09:49:14;;;;;;;;;;;26.90;99.90;;;;;;1954031;72;20183;-78
2021/08/15 09:51:34;;;;;;;;;;;26.80;99.90;;;;;;1896567;73;20228;-78
2021/08/15 09:53:56;;;;;;;;;;;26.70;99.90;;;;;;1995763;70;20287;-78
2021/08/15 09:56:27;;;;;;;;;;;26.70;99.90;;;;;;2002971;70;20184;-78
2021/08/15 09:58:58;;;;;;;;;;;26.70;99.90;;;;;;2008086;70;20268;-78
2021/08/15 10:01:28;;;;;;;;;;;26.60;99.90;;;;;;1989995;72;20395;-79
2021/08/15 10:03:57;;;;;;;;;;;26.50;99.90;;;;;;2003432;71;20226;-81
2021/08/15 10:06:29;;;;;;;;;;;26.50;99.90;;;;;;2010317;70;20177;-78
2021/08/15 10:09:01;;;;;;;;;;;26.40;99.90;;;;;;2008546;70;20167;-78
2021/08/15 10:11:30;;;;;;;;;;;26.40;99.90;;;;;;2004986;70;20271;-79
2021/08/15 10:14:01;;;;;;;;;;;26.40;99.90;;;;;;2017607;70;20177;-79
2021/08/15 10:16:32;;;;;;;;;;;26.40;99.90;;;;;;2013628;70;20290;-78
2021/08/15 10:19:04;;;;;;;;;;;26.40;99.90;;;;;;2010448;70;20241;-78
2021/08/15 10:21:34;;;;;;;;;;;26.40;99.90;;;;;;2015044;71;20213;-78
2021/08/15 10:24:06;;;;;;;;;;;26.30;99.90;;;;;;2011267;71;20170;-81
2021/08/15 10:26:40;;;;;;;;;;;26.40;99.90;;;;;;1979037;72;20154;-78
2021/08/15 10:29:11;;;;;;;;;;;26.30;99.90;;;;;;1951783;72;20171;-77
2021/08/15 10:31:42;;;;;;;;;;;26.30;99.90;;;;;;1944150;72;20134;-77
2021/08/15 10:34:12;;;;;;;;;;;26.40;99.90;;;;;;1970575;72;20204;-77
2021/08/15 10:36:44;;;;;;;;;;;26.30;99.90;;;;;;1970864;71;20784;-78
2021/08/15 10:39:14;;;;;;;;;;;26.30;99.90;;;;;;1928513;73;20177;-79
2021/08/15 10:41:43;;;;;;;;;;;26.40;99.90;;;;;;1926911;74;20185;-78
2021/08/15 10:44:15;;;;;;;;;;;26.40;99.90;;;;;;1949470;72;20117;-79
2021/08/15 10:46:49;;;;;;;;;;;26.40;99.90;;;;;;1969251;72;20685;-79
2021/08/15 10:49:18;;;;;;;;;;;26.40;99.90;;;;;;1931070;73;20208;-79
2021/08/15 10:51:49;;;;;;;;;;;26.40;99.90;;;;;;1963443;72;20157;-79
2021/08/15 10:54:20;;;;;;;;;;;26.40;99.90;;;;;;1978143;71;20247;-78
2021/08/15 10:56:51;;;;;;;;;;;26.40;99.90;;;;;;1966513;72;20204;-79
2021/08/15 10:59:22;;;;;;;;;;;26.40;99.90;;;;;;1972673;72;20159;-79
2021/08/15 11:01:51;;;;;;;;;;;26.40;99.90;;;;;;1966438;72;20198;-80
2021/08/15 11:04:31;;;;;;;;;;;26.30;99.90;;;;;;1935784;73;20180;-78
2021/08/15 11:07:00;;;;;;;;;;;26.30;99.90;;;;;;2004748;70;20495;-78
2021/08/15 11:09:31;;;;;;;;;;;26.30;99.90;;;;;;1998420;70;20201;-77
2021/08/15 11:12:02;;;;;;;;;;;26.30;99.90;;;;;;1999772;70;20153;-78
2021/08/15 11:14:35;;;;;;;;;;;26.20;99.90;;;;;;1999974;71;20156;-77
2021/08/15 11:17:05;;;;;;;;;;;26.20;99.90;;;;;;2004063;70;20211;-78
2021/08/15 11:19:36;;;;;;;;;;;26.20;99.90;;;;;;1996545;71;20169;-78
2021/08/15 11:22:08;;;;;;;;;;;26.20;99.90;;;;;;2001564;71;20184;-79
2021/08/15 11:24:37;;;;;;;;;;;26.20;99.90;;;;;;1999419;70;20129;-79
2021/08/15 11:27:07;;;;;;;;;;;26.20;99.90;;;;;;2007423;70;20149;-77
2021/08/15 11:29:38;;;;;;;;;;;26.20;99.90;;;;;;2000857;70;20216;-78
2021/08/15 11:32:09;;;;;;;;;;;26.20;99.90;;;;;;2010979;70;20158;-78
2021/08/15 11:34:39;;;;;;;;;;;26.10;99.90;;;;;;2016962;70;20213;-78
2021/08/15 11:37:09;;;;;;;;;;;26.10;99.90;;;;;;1995928;71;20180;-78
2021/08/15 11:39:42;;;;;;;;;;;26.10;99.90;;;;;;1975371;71;20324;-76
2021/08/15 11:42:12;;;;;;;;;;;26.10;99.90;;;;;;1994782;70;20393;-76
2021/08/15 11:44:43;;;;;;;;;;;26.10;99.90;;;;;;1999222;70;20184;-76
2021/08/15 11:47:14;;;;;;;;;;;26.00;99.90;;;;;;2009803;70;20200;-76
2021/08/15 11:49:44;;;;;;;;;;;26.00;99.90;;;;;;2007046;70;20187;-77
2021/08/15 11:52:15;;;;;;;;;;;26.00;99.90;;;;;;1998601;71;20185;-78
2021/08/15 11:54:45;;;;;;;;;;;25.90;99.90;;;;;;2000573;71;20219;-76
2021/08/15 11:57:14;;;;;;;;;;;25.90;99.90;;;;;;1995973;71;20273;-76
2021/08/15 11:59:45;;;;;;;;;;;25.90;99.90;;;;;;2010013;70;20250;-78
2021/08/15 12:02:16;;;;;;;;;;;25.90;99.90;;;;;;2006159;70;20173;-76
2021/08/15 12:04:47;;;;;;;;;;;25.90;99.90;;;;;;1983008;71;20147;-79
2021/08/15 12:07:18;;;;;;;;;;;25.90;99.90;;;;;;1992101;71;20635;-78
2021/08/15 12:09:49;;;;;;;;;;;25.90;99.90;;;;;;1990763;71;20198;-76
2021/08/15 12:12:19;;;;;;;;;;;25.90;99.90;;;;;;1999722;70;20172;-76
2021/08/15 12:14:49;;;;;;;;;;;25.80;99.90;;;;;;2000625;70;20280;-77
2021/08/15 12:17:21;;;;;;;;;;;25.90;99.90;;;;;;1998123;71;20187;-77
2021/08/15 12:19:50;;;;;;;;;;;25.90;99.90;;;;;;1995712;70;20199;-77
2021/08/15 12:22:20;;;;;;;;;;;25.90;99.90;;;;;;2002320;70;20525;-77
2021/08/15 12:24:51;;;;;;;;;;;25.90;99.90;;;;;;1998167;71;20245;-76
2021/08/15 12:27:22;;;;;;;;;;;25.90;99.90;;;;;;2001697;71;20214;-76
2021/08/15 12:29:54;;;;;;;;;;;25.90;99.90;;;;;;2002474;70;20144;-78
2021/08/15 12:32:25;;;;;;;;;;;25.80;99.90;;;;;;2003636;70;20233;-77
2021/08/15 12:34:57;;;;;;;;;;;25.80;99.90;;;;;;1991549;70;20805;-79
2021/08/15 12:37:28;;;;;;;;;;;25.80;99.90;;;;;;2008107;70;20493;-78
2021/08/15 12:40:01;;;;;;;;;;;25.80;99.90;;;;;;1998506;70;20250;-78
2021/08/15 12:42:32;;;;;;;;;;;25.80;99.90;;;;;;2009352;70;20326;-78
2021/08/15 12:45:03;;;;;;;;;;;25.80;99.90;;;;;;2001258;70;20725;-78
2021/08/15 12:47:34;;;;;;;;;;;25.80;99.90;;;;;;1999877;70;20263;-77
2021/08/15 12:50:05;;;;;;;;;;;25.80;99.90;;;;;;2001626;70;20207;-77
2021/08/15 12:52:36;;;;;;;;;;;25.80;99.90;;;;;;2009495;70;20200;-76
2021/08/15 12:55:08;;;;;;;;;;;25.80;99.90;;;;;;2006152;70;20255;-78
2021/08/15 12:57:38;;;;;;;;;;;25.90;99.90;;;;;;2006585;70;20212;-78
2021/08/15 13:00:09;;;;;;;;;;;25.80;99.90;;;;;;2004728;70;20192;-78
2021/08/15 13:02:39;;;;;;;;;;;25.90;99.90;;;;;;2008504;70;20192;-78
2021/08/15 13:05:09;;;;;;;;;;;25.80;99.90;;;;;;2004554;70;20167;-77
2021/08/15 13:07:39;;;;;;;;;;;25.80;99.90;;;;;;1999693;70;20204;-77
2021/08/15 13:10:10;;;;;;;;;;;25.80;99.90;;;;;;2006798;70;20233;-77
2021/08/15 13:12:40;;;;;;;;;;;25.80;99.90;;;;;;2014117;70;20306;-77
2021/08/15 13:15:11;;;;;;;;;;;25.80;99.90;;;;;;2005732;70;20463;-78
2021/08/15 13:17:41;;;;;;;;;;;25.70;99.90;;;;;;2003446;70;20177;-77
2021/08/15 13:20:13;;;;;;;;;;;25.70;99.90;;;;;;1988919;71;20255;-87
2021/08/15 13:22:45;;;;;;;;;;;25.70;99.90;;;;;;1997927;71;20207;-89
2021/08/15 13:25:18;;;;;;;;;;;25.70;99.90;;;;;;1994415;70;20164;-89
2021/08/15 13:27:51;;;;;;;;;;;25.70;99.90;;;;;;2000905;70;20152;-88
2021/08/15 13:30:24;;;;;;;;;;;25.70;99.90;;;;;;1999085;71;20218;-89
2021/08/15 13:33:01;;;;;;;;;;;25.70;99.90;;;;;;2008619;70;20136;-88
2021/08/15 13:35:29;;;;;;;;;;;25.60;99.90;;;;;;2010740;70;20166;-89
2021/08/15 13:37:58;;;;;;;;;;;25.60;99.90;;;;;;2003097;70;20244;-90
2021/08/15 13:40:28;;;;;;;;;;;25.60;99.90;;;;;;2002829;71;20219;-88
2021/08/15 13:43:00;;;;;;;;;;;25.60;99.90;;;;;;2003502;71;20137;-90
2021/08/15 13:45:33;;;;;;;;;;;25.60;99.90;;;;;;2004682;70;20225;-90
2021/08/15 13:48:27;;;;;;;;;;;25.60;99.90;;;;;;1997794;71;20267;-90
2021/08/15 13:51:00;;;;;;;;;;;25.60;99.90;;;;;;1992215;71;20193;-91
2021/08/15 13:53:30;;;;;;;;;;;25.60;99.90;;;;;;1992570;70;20122;-90
2021/08/15 13:56:06;;;;;;;;;;;25.60;99.90;;;;;;1984979;71;20255;-88
2021/08/15 14:01:17;;;;;;;;;;;25.70;99.90;;;;;;1907902;73;20602;-89
2021/08/15 14:03:50;;;;;;;;;;;25.60;99.90;;;;;;1818644;73;20188;-91
2021/08/15 14:09:26;;;;;;;;;;;25.60;99.90;;;;;;1842631;76;20265;-90
2021/08/15 14:12:35;;;;;;;;;;;25.60;99.90;;;;;;1863326;76;20233;-91
2021/08/15 14:15:01;;;;;;;;;;;;;;;;;;;;;
2021/08/15 14:17:44;;;;;;;;;;;25.60;99.90;;;;;;1835111;75;20228;-92
2021/08/15 14:20:45;;;;;;;;;;;25.60;99.90;;;;;;1858253;76;20241;-91
2021/08/15 14:23:24;;;;;;;;;;;25.60;99.90;;;;;;1842467;76;20209;-91
2021/08/15 14:29:24;;;;;;;;;;;25.70;99.90;;;;;;1860973;76;20258;-91
2021/08/15 14:32:15;;;;;;;;;;;;;;;;;;;;;
2021/08/15 14:35:03;;;;;;;;;;;25.70;99.90;;;;;;1858413;76;20528;-91
2021/08/15 14:46:34;;;;;;;;;;;25.80;99.90;;;;;;1714563;82;20294;-92
2021/08/15 14:49:18;;;;;;;;;;;;;;;;;;;;;
2021/08/15 15:08:21;;;;;;;;;;;25.80;99.90;;;;;;1909390;73;20240;-91
2021/08/15 15:11:05;;;;;;;;;;;25.80;99.90;;;;;;1894414;74;20257;-91
2021/08/15 15:13:39;;;;;;;;;;;25.80;99.90;;;;;;1816737;77;20349;-91
2021/08/15 15:22:22;;;;;;;;;;;25.80;99.90;;;;;;1728686;78;20528;-91
2021/08/15 15:31:28;;;;;;;;;;;;;;;;;;;;;
2021/08/15 15:34:02;;;;;;;;;;;;;;;;;;;;;
2021/08/15 15:39:45;;;;;;;;;;;25.80;99.90;;;;;;1812942;77;20281;-88
2021/08/15 15:42:42;;;;;;;;;;;;;;;;;;;;;
2021/08/15 15:45:42;;;;;;;;;;;;;;;;;;;;;
2021/08/15 15:48:19;;;;;;;;;;;25.70;99.90;;;;;;1714357;81;20248;-90
2021/08/15 15:51:14;;;;;;;;;;;25.70;99.90;;;;;;1746779;80;20224;-92
2021/08/15 15:53:46;;;;;;;;;;;25.60;99.90;;;;;;1759732;80;20202;-92
2021/08/15 15:57:07;;;;;;;;;;;25.60;99.90;;;;;;1748321;80;20237;-92
2021/08/15 15:59:36;;;;;;;;;;;;;;;;;;;;;
2021/08/15 16:02:10;;;;;;;;;;;25.50;99.90;;;;;;1750742;80;20235;-91
2021/08/15 16:04:42;;;;;;;;;;;25.50;99.90;;;;;;1759058;80;20212;-91
2021/08/15 16:07:17;;;;;;;;;;;25.50;99.90;;;;;;1760840;80;20331;-91
2021/08/15 16:10:26;;;;;;;;;;;25.50;99.90;;;;;;1749292;80;20173;-91
2021/08/15 16:13:06;;;;;;;;;;;25.50;99.90;;;;;;1693752;82;20195;-91
2021/08/15 16:15:49;;;;;;;;;;;25.50;99.90;;;;;;1746474;80;20288;-91
2021/08/15 16:18:32;;;;;;;;;;;;;;;;;;;;;
2021/08/15 16:21:07;;;;;;;;;;;25.50;99.90;;;;;;1763203;80;20179;-89